sensor_id;sensor_type;location;lat;lon;timestamp;temperature;humidity
47022;DHT22;32779;52.264;6.154;2022-07-10T00:00:10;15.20;99.90
47022;DHT22;32779;52.264;6.154;2022-07-10T00:02:36;15.20;99.90
47022;DHT22;32779;52.264;6.154;2022-07-10T00:05:03;15.20;99.90
47022;DHT22;32779;52.264;6.154;2022-07-10T00:07:29;15.20;99.90
47022;DHT22;32779;52.264;6.154;2022-07-10T00:09:54;15.20;99.90
47022;DHT22;32779;52.264;6.154;2022-07-10T00:12:20;15.30;99.90
47022;DHT22;32779;52.264;6.154;2022-07-10T00:14:45;15.30;99.90
47022;DHT22;32779;52.264;6.154;2022-07-10T00:17:11;15.20;99.90
47022;DHT22;32779;52.264;6.154;2022-07-10T00:19:36;15.20;99.90
47022;DHT22;32779;52.264;6.154;2022-07-10T00:22:02;15.20;99.90
47022;DHT22;32779;52.264;6.154;2022-07-10T00:24:27;15.20;99.90
47022;DHT22;32779;52.264;6.154;2022-07-10T00:26:53;15.10;99.90
47022;DHT22;32779;52.264;6.154;2022-07-10T00:29:18;15.10;99.90
47022;DHT22;32779;52.264;6.154;2022-07-10T00:31:44;15.00;99.90
47022;DHT22;32779;52.264;6.154;2022-07-10T00:34:09;15.00;99.90
47022;DHT22;32779;52.264;6.154;2022-07-10T00:36:35;14.90;99.90
47022;DHT22;32779;52.264;6.154;2022-07-10T00:39:00;14.90;99.90
47022;DHT22;32779;52.264;6.154;2022-07-10T00:41:26;14.80;99.90
47022;DHT22;32779;52.264;6.154;2022-07-10T00:43:56;14.80;99.90
47022;DHT22;32779;52.264;6.154;2022-07-10T00:46:23;14.70;99.90
47022;DHT22;32779;52.264;6.154;2022-07-10T00:48:48;14.60;99.90
47022;DHT22;32779;52.264;6.154;2022-07-10T00:51:16;14.60;99.90
47022;DHT22;32779;52.264;6.154;2022-07-10T00:53:43;14.60;99.90
47022;DHT22;32779;52.264;6.154;2022-07-10T00:56:10;14.50;99.90
47022;DHT22;32779;52.264;6.154;2022-07-10T00:58:37;14.50;99.90
47022;DHT22;32779;52.264;6.154;2022-07-10T01:01:04;14.40;99.90
47022;DHT22;32779;52.264;6.154;2022-07-10T01:03:30;14.30;99.90
47022;DHT22;32779;52.264;6.154;2022-07-10T01:05:56;14.30;99.90
47022;DHT22;32779;52.264;6.154;2022-07-10T01:08:22;14.20;99.90
47022;DHT22;32779;52.264;6.154;2022-07-10T01:10:48;14.30;99.90
47022;DHT22;32779;52.264;6.154;2022-07-10T01:13:14;14.20;99.90
47022;DHT22;32779;52.264;6.154;2022-07-10T01:15:40;14.20;99.90
47022;DHT22;32779;52.264;6.154;2022-07-10T01:18:06;14.20;99.90
47022;DHT22;32779;52.264;6.154;2022-07-10T01:20:32;14.10;99.90
47022;DHT22;32779;52.264;6.154;2022-07-10T01:22:57;14.10;99.90
47022;DHT22;32779;52.264;6.154;2022-07-10T01:25:23;14.00;99.90
47022;DHT22;32779;52.264;6.154;2022-07-10T01:27:50;14.00;99.90
47022;DHT22;32779;52.264;6.154;2022-07-10T01:30:16;14.00;99.90
47022;DHT22;32779;52.264;6.154;2022-07-10T01:32:41;13.90;99.90
47022;DHT22;32779;52.264;6.154;2022-07-10T01:35:07;13.90;99.90
47022;DHT22;32779;52.264;6.154;2022-07-10T01:37:33;13.90;99.90
47022;DHT22;32779;52.264;6.154;2022-07-10T01:39:59;13.80;99.90
47022;DHT22;32779;52.264;6.154;2022-07-10T01:42:24;13.70;99.90
47022;DHT22;32779;52.264;6.154;2022-07-10T01:44:50;13.80;99.90
47022;DHT22;32779;52.264;6.154;2022-07-10T01:47:15;13.70;99.90
47022;DHT22;32779;52.264;6.154;2022-07-10T01:49:41;13.70;99.90
47022;DHT22;32779;52.264;6.154;2022-07-10T01:52:06;13.70;99.90
47022;DHT22;32779;52.264;6.154;2022-07-10T01:54:32;13.70;99.90
47022;DHT22;32779;52.264;6.154;2022-07-10T01:56:58;13.60;99.90
47022;DHT22;32779;52.264;6.154;2022-07-10T01:59:24;13.70;99.90
47022;DHT22;32779;52.264;6.154;2022-07-10T02:01:49;13.60;99.90
47022;DHT22;32779;52.264;6.154;2022-07-10T02:04:15;13.50;99.90
47022;DHT22;32779;52.264;6.154;2022-07-10T02:06:59;13.50;99.90
47022;DHT22;32779;52.264;6.154;2022-07-10T02:09:25;13.40;99.90
47022;DHT22;32779;52.264;6.154;2022-07-10T02:11:50;13.50;99.90
47022;DHT22;32779;52.264;6.154;2022-07-10T02:14:16;13.50;99.90
47022;DHT22;32779;52.264;6.154;2022-07-10T02:16:41;13.40;99.90
47022;DHT22;32779;52.264;6.154;2022-07-10T02:19:07;13.40;99.90
47022;DHT22;32779;52.264;6.154;2022-07-10T02:21:32;13.40;99.90
47022;DHT22;32779;52.264;6.154;2022-07-10T02:23:58;13.30;99.90
47022;DHT22;32779;52.264;6.154;2022-07-10T02:26:23;13.40;99.90
47022;DHT22;32779;52.264;6.154;2022-07-10T02:28:49;13.30;99.90
47022;DHT22;32779;52.264;6.154;2022-07-10T02:31:15;13.30;99.90
47022;DHT22;32779;52.264;6.154;2022-07-10T02:33:40;13.30;99.90
47022;DHT22;32779;52.264;6.154;2022-07-10T02:36:06;13.30;99.90
47022;DHT22;32779;52.264;6.154;2022-07-10T02:38:31;13.30;99.90
47022;DHT22;32779;52.264;6.154;2022-07-10T02:40:57;13.30;99.90
47022;DHT22;32779;52.264;6.154;2022-07-10T02:43:23;13.20;99.90
47022;DHT22;32779;52.264;6.154;2022-07-10T02:45:48;13.20;99.90
47022;DHT22;32779;52.264;6.154;2022-07-10T02:48:15;13.20;99.90
47022;DHT22;32779;52.264;6.154;2022-07-10T02:50:41;13.20;99.90
47022;DHT22;32779;52.264;6.154;2022-07-10T02:53:06;13.20;99.90
47022;DHT22;32779;52.264;6.154;2022-07-10T02:55:32;13.20;99.90
47022;DHT22;32779;52.264;6.154;2022-07-10T02:57:58;13.20;99.90
47022;DHT22;32779;52.264;6.154;2022-07-10T03:00:25;13.10;99.90
47022;DHT22;32779;52.264;6.154;2022-07-10T03:02:51;13.10;99.90
47022;DHT22;32779;52.264;6.154;2022-07-10T03:05:17;13.10;99.90
47022;DHT22;32779;52.264;6.154;2022-07-10T03:07:43;13.00;99.90
47022;DHT22;32779;52.264;6.154;2022-07-10T03:10:09;13.00;99.90
47022;DHT22;32779;52.264;6.154;2022-07-10T03:12:35;13.00;99.90
47022;DHT22;32779;52.264;6.154;2022-07-10T03:15:02;13.00;99.90
47022;DHT22;32779;52.264;6.154;2022-07-10T03:17:28;13.00;99.90
47022;DHT22;32779;52.264;6.154;2022-07-10T03:19:53;13.00;99.90
47022;DHT22;32779;52.264;6.154;2022-07-10T03:22:19;13.00;99.90
47022;DHT22;32779;52.264;6.154;2022-07-10T03:24:45;12.90;99.90
47022;DHT22;32779;52.264;6.154;2022-07-10T03:27:12;12.90;99.90
47022;DHT22;32779;52.264;6.154;2022-07-10T03:29:38;12.90;99.90
47022;DHT22;32779;52.264;6.154;2022-07-10T03:32:04;12.90;99.90
47022;DHT22;32779;52.264;6.154;2022-07-10T03:34:30;12.90;99.90
47022;DHT22;32779;52.264;6.154;2022-07-10T03:36:55;12.90;99.90
47022;DHT22;32779;52.264;6.154;2022-07-10T03:39:22;12.90;99.90
47022;DHT22;32779;52.264;6.154;2022-07-10T03:41:47;13.00;99.90
47022;DHT22;32779;52.264;6.154;2022-07-10T03:44:13;13.00;99.90
47022;DHT22;32779;52.264;6.154;2022-07-10T03:46:38;13.00;99.90
47022;DHT22;32779;52.264;6.154;2022-07-10T03:49:04;13.00;99.90
47022;DHT22;32779;52.264;6.154;2022-07-10T03:51:29;13.10;99.90
47022;DHT22;32779;52.264;6.154;2022-07-10T03:53:55;13.10;99.90
47022;DHT22;32779;52.264;6.154;2022-07-10T03:56:21;13.10;99.90
47022;DHT22;32779;52.264;6.154;2022-07-10T03:59:05;13.20;99.90
47022;DHT22;32779;52.264;6.154;2022-07-10T04:01:31;13.10;99.90
47022;DHT22;32779;52.264;6.154;2022-07-10T04:03:56;13.10;99.90
47022;DHT22;32779;52.264;6.154;2022-07-10T04:06:22;13.20;99.90
47022;DHT22;32779;52.264;6.154;2022-07-10T04:08:47;13.10;99.90
47022;DHT22;32779;52.264;6.154;2022-07-10T04:11:13;13.20;99.90
47022;DHT22;32779;52.264;6.154;2022-07-10T04:13:38;13.20;99.90
47022;DHT22;32779;52.264;6.154;2022-07-10T04:16:04;13.30;99.90
47022;DHT22;32779;52.264;6.154;2022-07-10T04:18:30;13.30;99.90
47022;DHT22;32779;52.264;6.154;2022-07-10T04:20:55;13.30;99.90
47022;DHT22;32779;52.264;6.154;2022-07-10T04:23:21;13.30;99.90
47022;DHT22;32779;52.264;6.154;2022-07-10T04:25:46;13.40;99.90
47022;DHT22;32779;52.264;6.154;2022-07-10T04:28:12;13.50;99.90
47022;DHT22;32779;52.264;6.154;2022-07-10T04:30:37;13.50;99.90
47022;DHT22;32779;52.264;6.154;2022-07-10T04:33:03;13.60;99.90
47022;DHT22;32779;52.264;6.154;2022-07-10T04:35:28;13.60;99.90
47022;DHT22;32779;52.264;6.154;2022-07-10T04:37:54;13.70;99.90
47022;DHT22;32779;52.264;6.154;2022-07-10T04:40:19;13.80;99.90
47022;DHT22;32779;52.264;6.154;2022-07-10T04:42:45;13.90;99.90
47022;DHT22;32779;52.264;6.154;2022-07-10T04:45:10;13.90;99.90
47022;DHT22;32779;52.264;6.154;2022-07-10T04:47:36;14.00;99.90
47022;DHT22;32779;52.264;6.154;2022-07-10T04:50:02;14.10;99.90
47022;DHT22;32779;52.264;6.154;2022-07-10T04:52:27;14.20;99.90
47022;DHT22;32779;52.264;6.154;2022-07-10T04:54:53;14.30;99.90
47022;DHT22;32779;52.264;6.154;2022-07-10T04:57:18;14.30;99.90
47022;DHT22;32779;52.264;6.154;2022-07-10T04:59:44;14.40;99.90
47022;DHT22;32779;52.264;6.154;2022-07-10T05:02:09;14.40;99.90
47022;DHT22;32779;52.264;6.154;2022-07-10T05:04:35;14.40;99.90
47022;DHT22;32779;52.264;6.154;2022-07-10T05:07:01;14.50;99.90
47022;DHT22;32779;52.264;6.154;2022-07-10T05:09:26;14.50;99.90
47022;DHT22;32779;52.264;6.154;2022-07-10T05:11:52;14.60;99.90
47022;DHT22;32779;52.264;6.154;2022-07-10T05:14:17;14.60;99.90
47022;DHT22;32779;52.264;6.154;2022-07-10T05:16:43;14.60;99.90
47022;DHT22;32779;52.264;6.154;2022-07-10T05:19:08;14.60;99.90
47022;DHT22;32779;52.264;6.154;2022-07-10T05:21:34;14.70;99.90
47022;DHT22;32779;52.264;6.154;2022-07-10T05:23:59;14.70;99.90
47022;DHT22;32779;52.264;6.154;2022-07-10T05:26:25;14.80;99.90
47022;DHT22;32779;52.264;6.154;2022-07-10T05:28:50;14.80;99.90
47022;DHT22;32779;52.264;6.154;2022-07-10T05:31:16;14.80;99.90
47022;DHT22;32779;52.264;6.154;2022-07-10T05:33:41;14.90;99.90
47022;DHT22;32779;52.264;6.154;2022-07-10T05:36:08;15.00;99.90
47022;DHT22;32779;52.264;6.154;2022-07-10T05:38:34;15.00;99.90
47022;DHT22;32779;52.264;6.154;2022-07-10T05:40:59;15.00;99.90
47022;DHT22;32779;52.264;6.154;2022-07-10T05:43:25;15.10;99.90
47022;DHT22;32779;52.264;6.154;2022-07-10T05:45:50;15.20;99.90
47022;DHT22;32779;52.264;6.154;2022-07-10T05:48:16;15.30;99.90
47022;DHT22;32779;52.264;6.154;2022-07-10T05:50:41;15.30;99.90
47022;DHT22;32779;52.264;6.154;2022-07-10T05:53:07;15.40;99.90
47022;DHT22;32779;52.264;6.154;2022-07-10T05:55:33;15.50;99.90
47022;DHT22;32779;52.264;6.154;2022-07-10T05:57:58;15.60;99.90
47022;DHT22;32779;52.264;6.154;2022-07-10T06:00:24;15.60;99.90
47022;DHT22;32779;52.264;6.154;2022-07-10T06:02:50;15.70;99.90
47022;DHT22;32779;52.264;6.154;2022-07-10T06:05:15;15.80;99.90
47022;DHT22;32779;52.264;6.154;2022-07-10T06:07:41;15.80;99.90
47022;DHT22;32779;52.264;6.154;2022-07-10T06:10:06;15.90;99.90
47022;DHT22;32779;52.264;6.154;2022-07-10T06:12:32;15.90;99.90
47022;DHT22;32779;52.264;6.154;2022-07-10T06:14:58;16.00;99.90
47022;DHT22;32779;52.264;6.154;2022-07-10T06:17:24;16.10;99.90
47022;DHT22;32779;52.264;6.154;2022-07-10T06:19:49;16.30;99.90
47022;DHT22;32779;52.264;6.154;2022-07-10T06:22:15;16.40;99.90
47022;DHT22;32779;52.264;6.154;2022-07-10T06:24:59;16.60;99.90
47022;DHT22;32779;52.264;6.154;2022-07-10T06:27:26;16.70;99.90
47022;DHT22;32779;52.264;6.154;2022-07-10T06:29:51;16.80;99.90
47022;DHT22;32779;52.264;6.154;2022-07-10T06:32:17;16.80;99.90
47022;DHT22;32779;52.264;6.154;2022-07-10T06:34:42;16.80;99.90
47022;DHT22;32779;52.264;6.154;2022-07-10T06:37:08;16.70;99.90
47022;DHT22;32779;52.264;6.154;2022-07-10T06:39:34;16.70;99.90
47022;DHT22;32779;52.264;6.154;2022-07-10T06:42:07;16.60;99.90
47022;DHT22;32779;52.264;6.154;2022-07-10T06:44:33;16.70;99.90
47022;DHT22;32779;52.264;6.154;2022-07-10T06:46:58;16.70;99.90
47022;DHT22;32779;52.264;6.154;2022-07-10T06:49:44;16.70;99.90
47022;DHT22;32779;52.264;6.154;2022-07-10T06:52:10;16.70;99.90
47022;DHT22;32779;52.264;6.154;2022-07-10T06:54:36;16.70;99.90
47022;DHT22;32779;52.264;6.154;2022-07-10T06:57:01;16.70;99.90
47022;DHT22;32779;52.264;6.154;2022-07-10T06:59:27;16.60;99.90
47022;DHT22;32779;52.264;6.154;2022-07-10T07:01:53;16.50;99.90
47022;DHT22;32779;52.264;6.154;2022-07-10T07:04:19;16.50;99.90
47022;DHT22;32779;52.264;6.154;2022-07-10T07:06:44;16.50;99.90
47022;DHT22;32779;52.264;6.154;2022-07-10T07:09:11;16.50;99.90
47022;DHT22;32779;52.264;6.154;2022-07-10T07:11:36;16.50;99.90
47022;DHT22;32779;52.264;6.154;2022-07-10T07:14:02;16.50;99.90
47022;DHT22;32779;52.264;6.154;2022-07-10T07:16:27;16.50;99.90
47022;DHT22;32779;52.264;6.154;2022-07-10T07:19:04;16.60;99.90
47022;DHT22;32779;52.264;6.154;2022-07-10T07:21:33;16.50;99.90
47022;DHT22;32779;52.264;6.154;2022-07-10T07:24:18;16.50;99.90
47022;DHT22;32779;52.264;6.154;2022-07-10T07:26:45;16.50;99.90
47022;DHT22;32779;52.264;6.154;2022-07-10T07:29:13;16.50;99.90
47022;DHT22;32779;52.264;6.154;2022-07-10T07:31:38;16.70;99.90
47022;DHT22;32779;52.264;6.154;2022-07-10T07:34:04;16.80;99.90
47022;DHT22;32779;52.264;6.154;2022-07-10T07:36:29;16.90;99.90
47022;DHT22;32779;52.264;6.154;2022-07-10T07:38:55;17.00;99.90
47022;DHT22;32779;52.264;6.154;2022-07-10T07:41:21;17.20;99.90
47022;DHT22;32779;52.264;6.154;2022-07-10T07:43:48;17.30;99.90
47022;DHT22;32779;52.264;6.154;2022-07-10T07:46:13;17.50;99.90
47022;DHT22;32779;52.264;6.154;2022-07-10T07:48:39;17.60;99.90
47022;DHT22;32779;52.264;6.154;2022-07-10T07:51:04;17.70;99.90
47022;DHT22;32779;52.264;6.154;2022-07-10T07:53:30;17.70;99.90
47022;DHT22;32779;52.264;6.154;2022-07-10T07:55:55;17.60;99.90
47022;DHT22;32779;52.264;6.154;2022-07-10T07:58:21;17.50;99.90
47022;DHT22;32779;52.264;6.154;2022-07-10T08:00:46;17.30;99.90
47022;DHT22;32779;52.264;6.154;2022-07-10T08:03:12;17.20;99.90
47022;DHT22;32779;52.264;6.154;2022-07-10T08:05:37;17.10;99.90
47022;DHT22;32779;52.264;6.154;2022-07-10T08:08:03;17.10;99.90
47022;DHT22;32779;52.264;6.154;2022-07-10T08:10:34;17.10;99.90
47022;DHT22;32779;52.264;6.154;2022-07-10T08:12:59;17.10;99.90
47022;DHT22;32779;52.264;6.154;2022-07-10T08:15:25;17.10;99.90
47022;DHT22;32779;52.264;6.154;2022-07-10T08:17:52;17.20;99.90
47022;DHT22;32779;52.264;6.154;2022-07-10T08:20:18;17.30;99.90
47022;DHT22;32779;52.264;6.154;2022-07-10T08:22:45;17.30;99.90
47022;DHT22;32779;52.264;6.154;2022-07-10T08:25:12;17.40;99.90
47022;DHT22;32779;52.264;6.154;2022-07-10T08:27:38;17.40;99.90
47022;DHT22;32779;52.264;6.154;2022-07-10T08:30:04;17.40;99.90
47022;DHT22;32779;52.264;6.154;2022-07-10T08:32:30;17.30;99.90
47022;DHT22;32779;52.264;6.154;2022-07-10T08:34:57;17.30;99.90
47022;DHT22;32779;52.264;6.154;2022-07-10T08:37:23;17.20;99.90
47022;DHT22;32779;52.264;6.154;2022-07-10T08:39:49;17.10;99.90
47022;DHT22;32779;52.264;6.154;2022-07-10T08:42:15;16.90;99.90
47022;DHT22;32779;52.264;6.154;2022-07-10T08:44:41;16.80;99.90
47022;DHT22;32779;52.264;6.154;2022-07-10T08:47:06;16.80;99.90
47022;DHT22;32779;52.264;6.154;2022-07-10T08:49:32;16.70;99.90
47022;DHT22;32779;52.264;6.154;2022-07-10T08:52:05;16.70;99.90
47022;DHT22;32779;52.264;6.154;2022-07-10T08:54:32;16.60;99.90
47022;DHT22;32779;52.264;6.154;2022-07-10T08:57:00;16.50;99.90
47022;DHT22;32779;52.264;6.154;2022-07-10T08:59:30;16.50;99.90
47022;DHT22;32779;52.264;6.154;2022-07-10T09:01:56;16.50;99.90
47022;DHT22;32779;52.264;6.154;2022-07-10T09:04:23;16.50;99.90
47022;DHT22;32779;52.264;6.154;2022-07-10T09:06:50;16.50;99.90
47022;DHT22;32779;52.264;6.154;2022-07-10T09:09:16;16.40;99.90
47022;DHT22;32779;52.264;6.154;2022-07-10T09:11:42;16.50;99.90
47022;DHT22;32779;52.264;6.154;2022-07-10T09:14:10;16.40;99.90
47022;DHT22;32779;52.264;6.154;2022-07-10T09:16:38;16.40;99.90
47022;DHT22;32779;52.264;6.154;2022-07-10T09:19:27;16.50;99.90
47022;DHT22;32779;52.264;6.154;2022-07-10T09:21:55;16.50;99.90
47022;DHT22;32779;52.264;6.154;2022-07-10T09:24:24;16.50;99.90
47022;DHT22;32779;52.264;6.154;2022-07-10T09:29:22;16.50;99.90
47022;DHT22;32779;52.264;6.154;2022-07-10T09:31:57;16.40;99.90
47022;DHT22;32779;52.264;6.154;2022-07-10T09:34:39;16.30;99.90
47022;DHT22;32779;52.264;6.154;2022-07-10T09:37:29;16.30;99.90
47022;DHT22;32779;52.264;6.154;2022-07-10T09:39:56;16.20;99.90
47022;DHT22;32779;52.264;6.154;2022-07-10T09:42:29;16.30;99.90
47022;DHT22;32779;52.264;6.154;2022-07-10T09:48:06;16.40;99.90
47022;DHT22;32779;52.264;6.154;2022-07-10T09:50:32;16.50;99.90
47022;DHT22;32779;52.264;6.154;2022-07-10T09:53:06;16.50;99.90
47022;DHT22;32779;52.264;6.154;2022-07-10T09:55:35;16.60;99.90
47022;DHT22;32779;52.264;6.154;2022-07-10T09:58:06;16.70;99.90
47022;DHT22;32779;52.264;6.154;2022-07-10T10:00:37;16.80;99.90
47022;DHT22;32779;52.264;6.154;2022-07-10T10:03:05;17.00;99.90
47022;DHT22;32779;52.264;6.154;2022-07-10T10:05:52;17.20;99.90
47022;DHT22;32779;52.264;6.154;2022-07-10T10:08:26;17.30;99.90
47022;DHT22;32779;52.264;6.154;2022-07-10T10:10:53;17.40;99.90
47022;DHT22;32779;52.264;6.154;2022-07-10T10:13:25;17.40;99.90
47022;DHT22;32779;52.264;6.154;2022-07-10T10:15:53;17.40;99.90
47022;DHT22;32779;52.264;6.154;2022-07-10T10:18:21;17.30;99.90
47022;DHT22;32779;52.264;6.154;2022-07-10T10:20:48;17.20;99.90
47022;DHT22;32779;52.264;6.154;2022-07-10T10:23:19;17.20;99.90
47022;DHT22;32779;52.264;6.154;2022-07-10T10:25:53;17.10;99.90
47022;DHT22;32779;52.264;6.154;2022-07-10T10:28:20;17.10;99.90
47022;DHT22;32779;52.264;6.154;2022-07-10T10:30:53;17.00;99.90
47022;DHT22;32779;52.264;6.154;2022-07-10T10:35:59;17.00;99.90
47022;DHT22;32779;52.264;6.154;2022-07-10T10:38:24;17.00;99.90
47022;DHT22;32779;52.264;6.154;2022-07-10T10:40:50;17.10;99.90
47022;DHT22;32779;52.264;6.154;2022-07-10T10:43:22;17.20;99.90
47022;DHT22;32779;52.264;6.154;2022-07-10T10:45:52;17.30;99.90
47022;DHT22;32779;52.264;6.154;2022-07-10T10:48:18;17.40;99.90
47022;DHT22;32779;52.264;6.154;2022-07-10T10:50:46;17.60;99.90
47022;DHT22;32779;52.264;6.154;2022-07-10T10:53:26;17.70;99.90
47022;DHT22;32779;52.264;6.154;2022-07-10T10:58:41;17.80;99.90
47022;DHT22;32779;52.264;6.154;2022-07-10T11:06:43;18.00;99.90
47022;DHT22;32779;52.264;6.154;2022-07-10T11:09:29;18.10;99.90
47022;DHT22;32779;52.264;6.154;2022-07-10T11:12:09;18.30;99.90
47022;DHT22;32779;52.264;6.154;2022-07-10T11:14:40;18.60;99.90
47022;DHT22;32779;52.264;6.154;2022-07-10T11:17:07;18.90;99.90
47022;DHT22;32779;52.264;6.154;2022-07-10T11:19:34;19.10;99.90
47022;DHT22;32779;52.264;6.154;2022-07-10T11:24:46;19.40;99.90
47022;DHT22;32779;52.264;6.154;2022-07-10T11:30:10;19.30;99.90
47022;DHT22;32779;52.264;6.154;2022-07-10T11:32:35;19.10;99.90
47022;DHT22;32779;52.264;6.154;2022-07-10T11:35:01;19.00;99.90
47022;DHT22;32779;52.264;6.154;2022-07-10T11:37:26;18.90;99.90
47022;DHT22;32779;52.264;6.154;2022-07-10T11:40:09;18.90;99.90
47022;DHT22;32779;52.264;6.154;2022-07-10T11:42:48;18.80;99.90
47022;DHT22;32779;52.264;6.154;2022-07-10T11:45:24;18.70;99.90
47022;DHT22;32779;52.264;6.154;2022-07-10T11:47:50;18.60;99.90
47022;DHT22;32779;52.264;6.154;2022-07-10T11:50:15;18.50;99.90
47022;DHT22;32779;52.264;6.154;2022-07-10T11:52:41;18.50;99.90
47022;DHT22;32779;52.264;6.154;2022-07-10T11:55:17;18.40;99.90
47022;DHT22;32779;52.264;6.154;2022-07-10T11:57:43;18.40;99.90
47022;DHT22;32779;52.264;6.154;2022-07-10T12:00:34;18.50;99.90
47022;DHT22;32779;52.264;6.154;2022-07-10T12:03:19;18.50;99.90
47022;DHT22;32779;52.264;6.154;2022-07-10T12:05:45;18.60;99.90
47022;DHT22;32779;52.264;6.154;2022-07-10T12:08:11;18.60;99.90
47022;DHT22;32779;52.264;6.154;2022-07-10T12:10:38;18.40;99.90
47022;DHT22;32779;52.264;6.154;2022-07-10T12:13:15;18.30;99.90
47022;DHT22;32779;52.264;6.154;2022-07-10T12:15:43;18.30;99.90
47022;DHT22;32779;52.264;6.154;2022-07-10T12:18:20;18.30;99.90
47022;DHT22;32779;52.264;6.154;2022-07-10T12:20:50;18.40;99.90
47022;DHT22;32779;52.264;6.154;2022-07-10T12:23:18;18.50;99.90
47022;DHT22;32779;52.264;6.154;2022-07-10T12:25:48;18.60;99.90
47022;DHT22;32779;52.264;6.154;2022-07-10T12:28:17;18.60;99.90
47022;DHT22;32779;52.264;6.154;2022-07-10T12:30:44;18.60;99.90
47022;DHT22;32779;52.264;6.154;2022-07-10T12:33:12;18.60;99.90
47022;DHT22;32779;52.264;6.154;2022-07-10T12:35:57;18.60;99.90
47022;DHT22;32779;52.264;6.154;2022-07-10T12:38:28;18.60;99.90
47022;DHT22;32779;52.264;6.154;2022-07-10T12:43:34;18.60;99.90
47022;DHT22;32779;52.264;6.154;2022-07-10T12:46:17;18.60;99.90
47022;DHT22;32779;52.264;6.154;2022-07-10T12:51:29;18.50;99.90
47022;DHT22;32779;52.264;6.154;2022-07-10T12:53:55;18.50;99.90
47022;DHT22;32779;52.264;6.154;2022-07-10T12:56:34;18.50;99.90
47022;DHT22;32779;52.264;6.154;2022-07-10T12:59:02;18.50;99.90
47022;DHT22;32779;52.264;6.154;2022-07-10T13:01:29;18.60;99.90
47022;DHT22;32779;52.264;6.154;2022-07-10T13:04:04;18.60;99.90
47022;DHT22;32779;52.264;6.154;2022-07-10T13:06:31;18.70;99.90
47022;DHT22;32779;52.264;6.154;2022-07-10T13:08:57;18.80;99.90
47022;DHT22;32779;52.264;6.154;2022-07-10T13:11:23;18.80;99.90
47022;DHT22;32779;52.264;6.154;2022-07-10T13:13:49;18.80;99.90
47022;DHT22;32779;52.264;6.154;2022-07-10T13:16:15;18.90;99.90
47022;DHT22;32779;52.264;6.154;2022-07-10T13:18:42;19.00;99.90
47022;DHT22;32779;52.264;6.154;2022-07-10T13:21:09;19.10;99.90
47022;DHT22;32779;52.264;6.154;2022-07-10T13:23:36;19.20;99.90
47022;DHT22;32779;52.264;6.154;2022-07-10T13:26:03;19.30;99.90
47022;DHT22;32779;52.264;6.154;2022-07-10T13:28:29;19.40;99.90
47022;DHT22;32779;52.264;6.154;2022-07-10T13:30:55;19.40;99.90
47022;DHT22;32779;52.264;6.154;2022-07-10T13:33:21;19.40;99.90
47022;DHT22;32779;52.264;6.154;2022-07-10T13:35:48;19.40;99.90
47022;DHT22;32779;52.264;6.154;2022-07-10T13:38:14;19.40;99.90
47022;DHT22;32779;52.264;6.154;2022-07-10T13:40:40;19.40;99.90
47022;DHT22;32779;52.264;6.154;2022-07-10T13:43:06;19.40;99.90
47022;DHT22;32779;52.264;6.154;2022-07-10T13:45:35;19.50;99.90
47022;DHT22;32779;52.264;6.154;2022-07-10T13:48:11;19.60;99.90
47022;DHT22;32779;52.264;6.154;2022-07-10T13:50:40;19.70;99.90
47022;DHT22;32779;52.264;6.154;2022-07-10T13:53:07;19.80;99.90
47022;DHT22;32779;52.264;6.154;2022-07-10T13:55:33;19.90;99.90
47022;DHT22;32779;52.264;6.154;2022-07-10T13:57:59;19.90;99.90
47022;DHT22;32779;52.264;6.154;2022-07-10T14:00:25;20.00;99.90
47022;DHT22;32779;52.264;6.154;2022-07-10T14:02:51;20.00;99.90
47022;DHT22;32779;52.264;6.154;2022-07-10T14:05:16;20.10;99.90
47022;DHT22;32779;52.264;6.154;2022-07-10T14:07:42;20.10;99.90
47022;DHT22;32779;52.264;6.154;2022-07-10T14:10:08;20.10;99.90
47022;DHT22;32779;52.264;6.154;2022-07-10T14:12:34;20.10;99.90
47022;DHT22;32779;52.264;6.154;2022-07-10T14:14:59;20.20;99.90
47022;DHT22;32779;52.264;6.154;2022-07-10T14:17:26;20.30;99.90
47022;DHT22;32779;52.264;6.154;2022-07-10T14:19:51;20.40;99.90
47022;DHT22;32779;52.264;6.154;2022-07-10T14:22:17;20.60;99.90
47022;DHT22;32779;52.264;6.154;2022-07-10T14:24:43;20.70;99.90
47022;DHT22;32779;52.264;6.154;2022-07-10T14:27:08;20.90;99.90
47022;DHT22;32779;52.264;6.154;2022-07-10T14:29:34;21.00;99.90
47022;DHT22;32779;52.264;6.154;2022-07-10T14:32:00;21.10;99.90
47022;DHT22;32779;52.264;6.154;2022-07-10T14:34:25;21.10;99.90
47022;DHT22;32779;52.264;6.154;2022-07-10T14:36:53;21.20;99.90
47022;DHT22;32779;52.264;6.154;2022-07-10T14:39:19;21.30;99.90
47022;DHT22;32779;52.264;6.154;2022-07-10T14:41:44;21.30;99.90
47022;DHT22;32779;52.264;6.154;2022-07-10T14:44:10;21.30;99.90
47022;DHT22;32779;52.264;6.154;2022-07-10T14:46:36;21.30;99.90
47022;DHT22;32779;52.264;6.154;2022-07-10T14:49:01;21.30;99.90
47022;DHT22;32779;52.264;6.154;2022-07-10T14:51:27;21.40;99.90
47022;DHT22;32779;52.264;6.154;2022-07-10T14:53:54;21.50;99.90
47022;DHT22;32779;52.264;6.154;2022-07-10T14:56:21;21.50;99.90
47022;DHT22;32779;52.264;6.154;2022-07-10T14:58:47;21.50;99.90
47022;DHT22;32779;52.264;6.154;2022-07-10T15:01:13;21.60;99.90
47022;DHT22;32779;52.264;6.154;2022-07-10T15:03:40;21.60;99.90
47022;DHT22;32779;52.264;6.154;2022-07-10T15:06:06;21.60;99.90
47022;DHT22;32779;52.264;6.154;2022-07-10T15:08:31;21.60;99.90
47022;DHT22;32779;52.264;6.154;2022-07-10T15:11:00;21.50;99.80
47022;DHT22;32779;52.264;6.154;2022-07-10T15:13:26;21.50;99.90
47022;DHT22;32779;52.264;6.154;2022-07-10T15:15:52;21.40;99.90
47022;DHT22;32779;52.264;6.154;2022-07-10T15:18:19;21.40;99.90
47022;DHT22;32779;52.264;6.154;2022-07-10T15:20:45;21.30;99.90
47022;DHT22;32779;52.264;6.154;2022-07-10T15:23:11;21.20;99.90
47022;DHT22;32779;52.264;6.154;2022-07-10T15:25:38;21.20;99.90
47022;DHT22;32779;52.264;6.154;2022-07-10T15:28:05;21.20;99.90
47022;DHT22;32779;52.264;6.154;2022-07-10T15:30:36;21.10;99.90
47022;DHT22;32779;52.264;6.154;2022-07-10T15:33:05;21.10;99.90
47022;DHT22;32779;52.264;6.154;2022-07-10T15:35:31;21.20;99.90
47022;DHT22;32779;52.264;6.154;2022-07-10T15:37:57;21.20;99.90
47022;DHT22;32779;52.264;6.154;2022-07-10T15:40:33;21.20;99.90
47022;DHT22;32779;52.264;6.154;2022-07-10T15:43:00;21.10;99.90
47022;DHT22;32779;52.264;6.154;2022-07-10T15:45:26;21.10;99.90
47022;DHT22;32779;52.264;6.154;2022-07-10T15:47:52;21.10;99.90
47022;DHT22;32779;52.264;6.154;2022-07-10T15:50:18;21.00;99.90
47022;DHT22;32779;52.264;6.154;2022-07-10T15:52:44;20.90;99.90
47022;DHT22;32779;52.264;6.154;2022-07-10T15:55:11;20.90;99.90
47022;DHT22;32779;52.264;6.154;2022-07-10T15:57:36;20.90;99.90